Park Valley, Utah
Current Conditions -  °F | °C
As of 3:53 AM on Saturday 01 Nov 2014 (Local Time) from KBYI Reporting Station
Clear Clear  
Wind Chill:   Ceiling: Unl
Heat Index:   Visibility: 10mi
Dew Point:   Wind: 6mph
Humidity: 66%   Direction: 320°NW
Pressure: 29.63"   Gusts: NA
Location:  41.82°N, 113.33°W
Report Text: KBYI 010953Z AUTO 32005KT 10SM CLR 08/02 A2963 RMK AO2 SLP008 T00780017
Loading
Personal Weather Stations






























Interactive Weather Map
Tropical Storm Tracking
New forecast layout! Learn more

10-Day Weather Forecast

Advertisements
Track Severe Weather on mobile